KSUE/SUE METAR and TAF weather

Enter ICAO airport designator
Station Type Date Time Source
KSUE METAR 2020/07/10 22:56 UTC NOAA

KSUE 102256Z AUTO 32005KT 10SM CLR 26/18 A2985 RMK AO2 SLP102 T02610178


Station Type Date Time Source
KSUE Decoded METAR 2020/07/10 22:56 UTC NOAA

Sturgeon Bay, WI, United States (KSUE) 44-51N 087-25W
Jul 10, 2020 - 06:56 PM EDT / 2020.07.10 2256 UTC
Wind: from the NW (320 degrees) at 6 MPH (5 KT):0
Visibility: 10 mile(s):0
Sky conditions: clear
Temperature: 79.0 F (26.1 C)
Dew Point: 64.0 F (17.8 C)
Relative Humidity: 60%
Pressure (altimeter): 29.85 in. Hg (1010 hPa)
ob: KSUE 102256Z AUTO 32005KT 10SM CLR 26/18 A2985 RMK AO2 SLP102 T02610178
cycle: 23

Station Type Date Time Source
KSUE TAF UTC NOAA

Error!

Example: see airport list